Time;durP1;ratioP1;P1;durP2;ratioP2;P2;SDS_P1;SDS_P2;PMS_P1;PMS_P2;Temp;Humidity;BMP_temperature;BMP_pressure;BME280_temperature;BME280_humidity;BME280_pressure;Samples;Min_cycle;Max_cycle;Signal;HPM_P1;HPM_P2
2021/12/10 00:00:45;;;;;;;22.83;9.23;;;;;;;;;;5004375;28;20547;-61
2021/12/10 00:03:12;;;;;;;17.67;8.93;;;;;;;;;;4997041;28;20242;-61
2021/12/10 00:05:39;;;;;;;21.67;9.57;;;;;;;;;;4983194;28;20204;-61
2021/12/10 00:08:05;;;;;;;18.13;8.53;;;;;;;;;;4999616;28;20220;-61
2021/12/10 00:10:32;;;;;;;21.38;9.23;;;;;;;;;;5008525;28;20581;-61
2021/12/10 00:12:57;;;;;;;16.87;8.97;;;;;;;;;;5008913;28;20220;-61
2021/12/10 00:15:23;;;;;;;22.27;9.13;;;;;;;;;;5007115;28;20220;-61
2021/12/10 00:17:49;;;;;;;22.43;8.97;;;;;;;;;;5008807;28;20239;-61
2021/12/10 00:20:14;;;;;;;17.23;9.40;;;;;;;;;;5007845;28;21220;-61
2021/12/10 00:22:45;;;;;;;18.77;9.97;;;;;;;;;;5007663;28;20228;-61
2021/12/10 00:25:16;;;;;;;21.43;10.63;;;;;;;;;;5001815;28;20417;-61
2021/12/10 00:27:41;;;;;;;16.75;9.23;;;;;;;;;;4999823;28;20255;-60
2021/12/10 00:30:09;;;;;;;21.80;9.90;;;;;;;;;;4997906;28;20238;-61
2021/12/10 00:32:38;;;;;;;22.83;10.50;;;;;;;;;;5007236;28;20250;-60
2021/12/10 00:35:06;;;;;;;17.40;9.07;;;;;;;;;;5007790;28;20354;-61
2021/12/10 00:37:32;;;;;;;21.03;9.87;;;;;;;;;;5007877;28;20220;-60
2021/12/10 00:39:58;;;;;;;20.43;10.53;;;;;;;;;;5008441;28;20216;-60
2021/12/10 00:42:25;;;;;;;20.87;10.00;;;;;;;;;;5005432;28;20228;-61
2021/12/10 00:44:50;;;;;;;18.80;10.03;;;;;;;;;;5006621;28;20646;-61
2021/12/10 00:47:16;;;;;;;21.77;9.57;;;;;;;;;;5002869;28;20229;-61
2021/12/10 00:49:41;;;;;;;20.30;9.07;;;;;;;;;;4998828;28;20216;-61
2021/12/10 00:52:07;;;;;;;19.80;9.60;;;;;;;;;;4999588;28;20511;-60
2021/12/10 00:54:32;;;;;;;18.73;9.77;;;;;;;;;;5003148;28;20212;-60
2021/12/10 00:56:57;;;;;;;21.33;9.43;;;;;;;;;;5007378;28;20711;-61
2021/12/10 00:59:22;;;;;;;17.27;9.20;;;;;;;;;;5007203;28;20216;-60
2021/12/10 01:01:48;;;;;;;18.60;10.00;;;;;;;;;;5008029;28;20582;-60
2021/12/10 01:04:15;;;;;;;22.20;9.53;;;;;;;;;;5006805;28;20783;-60
2021/12/10 01:06:40;;;;;;;19.80;10.43;;;;;;;;;;5007600;28;20205;-61
2021/12/10 01:09:09;;;;;;;21.33;9.83;;;;;;;;;;5005034;28;20212;-61
2021/12/10 01:11:37;;;;;;;16.80;9.33;;;;;;;;;;4997574;28;20217;-60
2021/12/10 01:14:20;;;;;;;19.23;10.03;;;;;;;;;;4996785;28;20259;-61
2021/12/10 01:27:35;;;;;;;20.50;9.53;;;;;;;;;;5007119;28;20220;-61
2021/12/10 01:30:05;;;;;;;18.13;8.40;;;;;;;;;;5005304;28;20219;-61
2021/12/10 01:32:31;;;;;;;22.90;9.13;;;;;;;;;;4999441;28;20212;-60
2021/12/10 01:34:57;;;;;;;18.63;8.97;;;;;;;;;;4998910;28;20633;-60
2021/12/10 01:37:23;;;;;;;16.88;9.02;;;;;;;;;;4998261;28;20300;-60
2021/12/10 01:39:48;;;;;;;16.33;7.63;;;;;;;;;;5003277;28;20708;-61
2021/12/10 01:42:28;;;;;;;14.87;7.40;;;;;;;;;;5006431;28;20647;-61
2021/12/10 01:44:55;;;;;;;18.93;8.03;;;;;;;;;;5006015;28;20565;-60
2021/12/10 01:47:21;;;;;;;18.93;7.73;;;;;;;;;;5005320;28;20213;-61
2021/12/10 01:49:47;;;;;;;15.57;8.27;;;;;;;;;;5005994;28;20216;-61
2021/12/10 01:52:13;;;;;;;16.50;8.00;;;;;;;;;;5006416;28;20213;-61
2021/12/10 01:54:40;;;;;;;15.63;7.33;;;;;;;;;;5000359;28;20547;-60
2021/12/10 01:57:05;;;;;;;17.37;7.37;;;;;;;;;;4998425;28;20302;-61
2021/12/10 01:59:31;;;;;;;14.13;6.90;;;;;;;;;;4998202;28;20923;-60
2021/12/10 02:01:57;;;;;;;13.57;7.30;;;;;;;;;;5001863;28;20643;-61
2021/12/10 02:04:23;;;;;;;12.07;6.60;;;;;;;;;;5006139;28;20212;-60
2021/12/10 02:06:49;;;;;;;13.93;6.50;;;;;;;;;;5004217;28;20231;-60
2021/12/10 02:09:14;;;;;;;15.00;7.30;;;;;;;;;;5005065;28;20212;-61
2021/12/10 02:11:39;;;;;;;16.83;7.23;;;;;;;;;;5006341;28;20204;-61
2021/12/10 02:14:05;;;;;;;16.33;7.53;;;;;;;;;;5005512;28;20748;-61
2021/12/10 02:16:31;;;;;;;14.37;6.47;;;;;;;;;;5003542;28;20230;-60
2021/12/10 02:18:56;;;;;;;18.60;7.00;;;;;;;;;;4998450;28;20216;-61
2021/12/10 02:21:22;;;;;;;16.43;7.57;;;;;;;;;;4996671;28;20208;-60
2021/12/10 02:23:51;;;;;;;14.30;7.03;;;;;;;;;;4983496;28;20367;-60
2021/12/10 02:26:17;;;;;;;14.67;6.90;;;;;;;;;;5005084;28;20216;-60
2021/12/10 02:28:42;;;;;;;14.93;7.60;;;;;;;;;;5005511;28;20212;-60
2021/12/10 02:31:08;;;;;;;11.73;6.70;;;;;;;;;;5004603;28;20258;-60
2021/12/10 02:33:33;;;;;;;15.87;7.33;;;;;;;;;;5005929;28;20282;-60
2021/12/10 02:35:58;;;;;;;13.77;6.87;;;;;;;;;;5005348;28;20221;-60
2021/12/10 02:38:24;;;;;;;15.23;7.50;;;;;;;;;;5002990;28;20299;-61
2021/12/10 02:40:49;;;;;;;12.57;6.23;;;;;;;;;;4998599;28;20212;-61
2021/12/10 02:43:15;;;;;;;11.83;6.73;;;;;;;;;;4996517;28;20307;-60
2021/12/10 02:45:41;;;;;;;16.07;6.90;;;;;;;;;;4997457;28;20212;-60
2021/12/10 02:48:06;;;;;;;15.00;7.10;;;;;;;;;;5005649;28;20204;-61
2021/12/10 02:50:32;;;;;;;12.53;6.17;;;;;;;;;;5005030;28;20579;-61
2021/12/10 02:52:57;;;;;;;12.50;7.10;;;;;;;;;;5006005;28;20299;-60
2021/12/10 02:55:22;;;;;;;14.20;6.60;;;;;;;;;;5005520;28;20216;-61
2021/12/10 02:57:49;;;;;;;14.27;6.70;;;;;;;;;;5004920;28;20247;-60
2021/12/10 03:00:15;;;;;;;13.20;6.67;;;;;;;;;;5004394;28;20299;-61
2021/12/10 03:02:40;;;;;;;11.43;6.37;;;;;;;;;;4997171;28;20247;-61
2021/12/10 03:05:06;;;;;;;14.73;6.70;;;;;;;;;;4996183;28;20205;-61
2021/12/10 03:07:31;;;;;;;13.90;6.47;;;;;;;;;;4997451;28;20227;-60
2021/12/10 03:09:56;;;;;;;11.93;6.03;;;;;;;;;;5003175;28;20304;-60
2021/12/10 03:12:22;;;;;;;12.93;6.23;;;;;;;;;;5004135;28;20287;-61
2021/12/10 03:14:48;;;;;;;12.53;5.80;;;;;;;;;;5004212;28;20217;-60
2021/12/10 03:17:15;;;;;;;15.40;6.60;;;;;;;;;;5004030;28;20715;-60
2021/12/10 03:19:40;;;;;;;15.03;6.10;;;;;;;;;;5005478;28;20219;-60
2021/12/10 03:22:06;;;;;;;12.43;5.80;;;;;;;;;;5005026;28;20228;-61
2021/12/10 03:24:31;;;;;;;11.90;5.73;;;;;;;;;;4998303;28;20208;-60
2021/12/10 03:26:57;;;;;;;12.00;6.43;;;;;;;;;;4997226;28;20609;-60
2021/12/10 03:29:23;;;;;;;13.83;6.90;;;;;;;;;;4996409;28;20224;-60
2021/12/10 03:31:49;;;;;;;10.43;5.80;;;;;;;;;;5001720;28;20718;-60
2021/12/10 03:34:14;;;;;;;12.30;6.10;;;;;;;;;;5005018;28;20216;-61
2021/12/10 03:36:45;;;;;;;15.00;6.90;;;;;;;;;;5005194;28;20570;-61
2021/12/10 03:39:11;;;;;;;13.10;6.33;;;;;;;;;;5003835;28;20220;-60
2021/12/10 03:41:36;;;;;;;12.27;7.07;;;;;;;;;;5003759;28;20224;-60
2021/12/10 03:44:01;;;;;;;13.07;5.43;;;;;;;;;;5004529;28;20212;-61
2021/12/10 03:46:27;;;;;;;10.23;5.53;;;;;;;;;;5000957;28;20221;-60
2021/12/10 03:48:52;;;;;;;12.87;6.23;;;;;;;;;;4995496;28;20204;-60
2021/12/10 03:51:19;;;;;;;8.80;5.40;;;;;;;;;;4994871;28;20216;-61
2021/12/10 03:53:44;;;;;;;11.40;5.63;;;;;;;;;;4998452;28;20204;-60
2021/12/10 03:56:11;;;;;;;11.50;5.80;;;;;;;;;;5004619;28;20218;-61
2021/12/10 03:58:36;;;;;;;9.67;5.80;;;;;;;;;;5005173;28;20220;-61
2021/12/10 04:01:02;;;;;;;14.03;5.53;;;;;;;;;;5003811;28;20216;-61
2021/12/10 04:03:28;;;;;;;11.80;5.27;;;;;;;;;;5004818;28;20232;-61
2021/12/10 04:05:53;;;;;;;11.13;4.97;;;;;;;;;;5004711;28;20223;-60
2021/12/10 04:08:18;;;;;;;9.43;5.00;;;;;;;;;;5002031;28;20224;-60
2021/12/10 04:10:44;;;;;;;11.53;5.10;;;;;;;;;;4997375;28;20216;-61
2021/12/10 04:13:10;;;;;;;11.53;5.33;;;;;;;;;;4996245;28;20216;-61
2021/12/10 04:15:37;;;;;;;11.03;4.73;;;;;;;;;;4997404;28;20213;-60
2021/12/10 04:18:02;;;;;;;10.07;5.23;;;;;;;;;;5004182;28;20317;-61
2021/12/10 04:20:28;;;;;;;9.90;4.87;;;;;;;;;;5002665;28;20246;-60
2021/12/10 04:22:53;;;;;;;9.43;4.80;;;;;;;;;;5004825;28;20216;-61
2021/12/10 04:25:20;;;;;;;9.60;5.07;;;;;;;;;;5004338;28;20228;-61
2021/12/10 04:27:45;;;;;;;10.60;4.87;;;;;;;;;;5004394;28;20216;-61
2021/12/10 04:30:12;;;;;;;11.30;5.20;;;;;;;;;;5004565;28;20219;-60
2021/12/10 04:32:37;;;;;;;10.53;5.27;;;;;;;;;;4997583;28;20219;-61
2021/12/10 04:35:02;;;;;;;12.17;4.93;;;;;;;;;;4995320;28;20224;-61
2021/12/10 04:37:28;;;;;;;11.80;4.83;;;;;;;;;;4996704;28;20216;-60
2021/12/10 04:39:53;;;;;;;12.47;5.33;;;;;;;;;;5003356;28;20299;-60
2021/12/10 04:42:19;;;;;;;14.10;5.80;;;;;;;;;;5002218;28;20241;-61
2021/12/10 04:44:45;;;;;;;12.37;5.80;;;;;;;;;;5004714;28;20212;-60
2021/12/10 04:47:10;;;;;;;15.13;6.33;;;;;;;;;;5004137;28;20228;-61
2021/12/10 04:49:35;;;;;;;14.87;5.80;;;;;;;;;;5003615;28;20215;-60
2021/12/10 04:52:01;;;;;;;13.07;6.23;;;;;;;;;;5006234;28;20814;-61
2021/12/10 04:54:26;;;;;;;13.53;5.73;;;;;;;;;;5003154;28;20249;-60
2021/12/10 04:56:52;;;;;;;12.53;5.60;;;;;;;;;;4999147;28;20217;-60
2021/12/10 04:59:17;;;;;;;15.43;6.03;;;;;;;;;;4999050;28;20239;-60
2021/12/10 05:01:43;;;;;;;11.20;5.53;;;;;;;;;;5004197;28;20223;-61
2021/12/10 05:04:08;;;;;;;13.70;6.00;;;;;;;;;;5006231;28;20646;-61
2021/12/10 05:06:34;;;;;;;11.60;5.90;;;;;;;;;;5007387;28;20231;-60
2021/12/10 05:08:59;;;;;;;17.23;5.80;;;;;;;;;;5007262;28;20562;-60
2021/12/10 05:11:25;;;;;;;16.87;5.93;;;;;;;;;;5006233;28;20212;-61
2021/12/10 05:13:50;;;;;;;12.43;5.70;;;;;;;;;;5005931;28;20204;-61
2021/12/10 05:16:15;;;;;;;11.73;5.10;;;;;;;;;;5003894;28;20239;-61
2021/12/10 05:18:43;;;;;;;11.33;5.23;;;;;;;;;;4998405;28;20216;-61
2021/12/10 05:21:09;;;;;;;11.37;5.30;;;;;;;;;;4996691;28;20603;-60
2021/12/10 05:23:34;;;;;;;13.30;4.77;;;;;;;;;;5002147;28;20228;-61
2021/12/10 05:26:00;;;;;;;13.50;5.03;;;;;;;;;;5004500;28;20200;-60
2021/12/10 05:28:25;;;;;;;14.03;5.67;;;;;;;;;;5005339;28;20247;-60
2021/12/10 05:30:54;;;;;;;14.67;4.97;;;;;;;;;;5005904;28;20205;-60
2021/12/10 05:33:20;;;;;;;14.53;4.90;;;;;;;;;;5006634;28;20212;-60
2021/12/10 05:35:46;;;;;;;12.40;4.53;;;;;;;;;;5005643;28;20259;-61
2021/12/10 05:38:12;;;;;;;10.67;4.70;;;;;;;;;;5004377;28;20314;-61
2021/12/10 05:40:37;;;;;;;12.57;4.30;;;;;;;;;;4997346;28;20295;-61
2021/12/10 05:43:02;;;;;;;12.20;4.50;;;;;;;;;;4997962;28;20566;-61
2021/12/10 05:45:28;;;;;;;12.00;4.43;;;;;;;;;;4999449;28;20209;-60
2021/12/10 05:47:53;;;;;;;13.80;4.73;;;;;;;;;;5006464;28;20200;-61
2021/12/10 05:50:19;;;;;;;15.63;5.27;;;;;;;;;;5006198;28;20313;-61
2021/12/10 05:52:44;;;;;;;12.03;4.60;;;;;;;;;;5008906;28;20224;-61
2021/12/10 05:55:10;;;;;;;12.10;4.30;;;;;;;;;;5012570;28;20216;-60
2021/12/10 05:57:35;;;;;;;11.77;4.90;;;;;;;;;;5013605;28;20419;-60
2021/12/10 06:00:00;;;;;;;12.13;4.80;;;;;;;;;;5013609;28;20215;-60
2021/12/10 06:02:26;;;;;;;13.00;4.87;;;;;;;;;;5013081;28;20423;-58
2021/12/10 06:04:51;;;;;;;13.60;4.53;;;;;;;;;;5014088;28;20221;-59
2021/12/10 06:07:16;;;;;;;12.33;4.40;;;;;;;;;;5019071;28;20216;-60
2021/12/10 06:09:41;;;;;;;10.50;3.80;;;;;;;;;;5013716;28;20224;-59
2021/12/10 06:12:07;;;;;;;12.50;3.53;;;;;;;;;;5012315;28;20239;-59
2021/12/10 06:14:32;;;;;;;10.90;3.80;;;;;;;;;;5013231;28;20299;-60
2021/12/10 06:16:58;;;;;;;12.17;3.97;;;;;;;;;;5012557;28;20299;-59
2021/12/10 06:19:23;;;;;;;13.13;4.07;;;;;;;;;;5009044;28;20224;-59
2021/12/10 06:21:48;;;;;;;10.23;3.93;;;;;;;;;;5012089;28;20212;-59
2021/12/10 06:24:14;;;;;;;11.57;3.80;;;;;;;;;;5013374;28;20220;-60
2021/12/10 06:26:39;;;;;;;11.30;3.60;;;;;;;;;;5013823;28;20280;-59
2021/12/10 06:29:04;;;;;;;9.57;3.43;;;;;;;;;;5011260;28;20204;-59
2021/12/10 06:31:30;;;;;;;9.40;3.70;;;;;;;;;;5010342;28;20233;-59
2021/12/10 06:33:55;;;;;;;11.27;3.30;;;;;;;;;;5004434;28;20268;-59
2021/12/10 06:36:20;;;;;;;11.00;3.47;;;;;;;;;;4992950;28;20229;-59
2021/12/10 06:38:46;;;;;;;11.13;3.60;;;;;;;;;;4993881;28;20632;-59
2021/12/10 06:41:11;;;;;;;12.00;3.20;;;;;;;;;;5000477;28;20217;-59
2021/12/10 06:43:36;;;;;;;7.30;3.10;;;;;;;;;;5000356;28;20228;-59
2021/12/10 06:46:04;;;;;;;11.20;3.50;;;;;;;;;;5011862;28;20578;-59
2021/12/10 06:48:29;;;;;;;9.60;3.40;;;;;;;;;;4995095;28;20214;-59
2021/12/10 06:50:56;;;;;;;9.87;3.63;;;;;;;;;;4989839;28;20724;-59
2021/12/10 06:53:21;;;;;;;8.77;3.53;;;;;;;;;;5009834;28;20282;-59
2021/12/10 06:55:47;;;;;;;8.07;3.13;;;;;;;;;;5010408;28;20208;-59
2021/12/10 06:58:12;;;;;;;9.97;3.50;;;;;;;;;;4994968;28;20218;-59
2021/12/10 07:00:44;;;;;;;10.00;3.03;;;;;;;;;;5011988;28;20228;-59
2021/12/10 07:03:10;;;;;;;10.93;3.37;;;;;;;;;;4996199;28;20220;-60
2021/12/10 07:05:36;;;;;;;13.13;3.27;;;;;;;;;;5012131;28;20212;-59
2021/12/10 07:08:01;;;;;;;9.60;3.43;;;;;;;;;;5012209;28;20227;-60
2021/12/10 07:10:26;;;;;;;11.83;3.50;;;;;;;;;;5011045;28;20213;-59
2021/12/10 07:12:51;;;;;;;11.23;3.20;;;;;;;;;;5022516;28;20215;-59
2021/12/10 07:15:17;;;;;;;10.70;2.97;;;;;;;;;;5010592;28;20291;-59
2021/12/10 07:17:44;;;;;;;11.40;2.90;;;;;;;;;;5003503;28;20291;-59
2021/12/10 07:20:09;;;;;;;11.97;3.33;;;;;;;;;;5006391;28;20208;-59
2021/12/10 07:22:35;;;;;;;12.43;3.23;;;;;;;;;;5004770;28;20221;-59
2021/12/10 07:25:00;;;;;;;12.27;3.33;;;;;;;;;;4996727;28;20240;-61
2021/12/10 07:27:25;;;;;;;8.97;2.87;;;;;;;;;;4993274;28;20239;-59
2021/12/10 07:29:51;;;;;;;9.93;3.17;;;;;;;;;;5008255;28;20457;-58
2021/12/10 07:32:16;;;;;;;8.83;3.20;;;;;;;;;;4991933;28;20233;-58
2021/12/10 07:34:41;;;;;;;9.57;3.27;;;;;;;;;;4991888;28;20600;-58
2021/12/10 07:37:08;;;;;;;10.83;3.50;;;;;;;;;;4992253;28;20205;-58
2021/12/10 07:39:33;;;;;;;15.47;2.93;;;;;;;;;;4992237;28;20213;-58
2021/12/10 07:42:00;;;;;;;9.97;3.07;;;;;;;;;;4992202;28;20307;-58
2021/12/10 07:44:25;;;;;;;7.40;3.13;;;;;;;;;;4991660;28;20212;-58
2021/12/10 07:46:51;;;;;;;10.50;3.33;;;;;;;;;;4996749;28;20216;-57
2021/12/10 07:49:23;;;;;;;11.20;3.43;;;;;;;;;;4992249;28;20213;-58
2021/12/10 07:51:50;;;;;;;13.50;3.70;;;;;;;;;;5003908;28;20216;-58
2021/12/10 07:54:15;;;;;;;14.43;3.10;;;;;;;;;;5011985;28;20247;-58
2021/12/10 07:56:40;;;;;;;8.93;3.17;;;;;;;;;;5012297;28;20262;-57
2021/12/10 07:59:06;;;;;;;10.40;3.23;;;;;;;;;;5010998;28;20227;-58
2021/12/10 08:01:31;;;;;;;6.97;2.97;;;;;;;;;;5012865;28;20209;-57
2021/12/10 08:03:58;;;;;;;10.23;3.37;;;;;;;;;;5012307;28;20212;-58
2021/12/10 08:06:23;;;;;;;12.67;3.37;;;;;;;;;;5011274;28;20266;-58
2021/12/10 08:08:49;;;;;;;9.53;2.90;;;;;;;;;;5010921;28;20232;-58
2021/12/10 08:11:14;;;;;;;9.50;3.00;;;;;;;;;;5011630;28;20283;-58
2021/12/10 08:13:39;;;;;;;9.80;3.20;;;;;;;;;;5011559;28;20548;-58
2021/12/10 08:16:05;;;;;;;10.50;3.50;;;;;;;;;;5012004;28;20220;-58
2021/12/10 08:18:30;;;;;;;10.93;3.17;;;;;;;;;;5011874;28;20220;-58
2021/12/10 08:20:55;;;;;;;9.70;3.10;;;;;;;;;;5011179;28;20211;-58
2021/12/10 08:23:21;;;;;;;8.90;3.17;;;;;;;;;;5010526;28;20232;-58
2021/12/10 08:25:46;;;;;;;10.70;3.63;;;;;;;;;;5010900;28;20212;-58
2021/12/10 08:28:12;;;;;;;8.67;2.83;;;;;;;;;;5014057;28;20224;-58
2021/12/10 08:30:37;;;;;;;12.50;3.20;;;;;;;;;;5031125;28;20262;-58
2021/12/10 08:33:03;;;;;;;10.73;3.30;;;;;;;;;;5012906;28;20221;-58
2021/12/10 08:35:29;;;;;;;12.23;3.23;;;;;;;;;;5015067;28;20220;-58
2021/12/10 08:37:55;;;;;;;13.53;3.03;;;;;;;;;;5015546;28;20221;-58
2021/12/10 08:40:22;;;;;;;10.03;3.07;;;;;;;;;;5014289;28;20277;-58
2021/12/10 08:42:47;;;;;;;11.40;3.37;;;;;;;;;;5033996;28;20220;-58
2021/12/10 08:45:13;;;;;;;9.97;3.40;;;;;;;;;;4999918;28;20308;-58
2021/12/10 08:47:38;;;;;;;9.73;3.20;;;;;;;;;;5032050;28;20295;-58
2021/12/10 08:50:04;;;;;;;11.67;3.80;;;;;;;;;;5020585;28;20597;-58
2021/12/10 08:52:29;;;;;;;9.60;3.10;;;;;;;;;;5014878;28;20204;-58
2021/12/10 08:54:54;;;;;;;6.33;2.90;;;;;;;;;;5009270;28;20211;-58
2021/12/10 08:57:21;;;;;;;9.80;3.03;;;;;;;;;;5014957;28;20243;-58
2021/12/10 08:59:47;;;;;;;11.57;3.10;;;;;;;;;;5017588;28;20253;-58
2021/12/10 09:02:13;;;;;;;14.27;3.30;;;;;;;;;;5033773;28;20219;-58
2021/12/10 09:04:39;;;;;;;10.67;3.10;;;;;;;;;;5024127;28;20220;-58
2021/12/10 09:07:06;;;;;;;11.70;3.17;;;;;;;;;;5013729;28;20205;-58
2021/12/10 09:09:32;;;;;;;9.20;2.80;;;;;;;;;;5014075;28;20212;-58
2021/12/10 09:11:58;;;;;;;13.60;3.63;;;;;;;;;;5025832;28;20211;-58
2021/12/10 09:14:26;;;;;;;12.90;3.60;;;;;;;;;;5012895;28;20224;-58
2021/12/10 09:16:52;;;;;;;9.67;2.80;;;;;;;;;;5016297;28;20204;-58
2021/12/10 09:19:19;;;;;;;12.07;3.07;;;;;;;;;;5034589;28;20221;-58
2021/12/10 09:21:44;;;;;;;8.93;2.70;;;;;;;;;;5021769;28;20205;-58
2021/12/10 09:24:10;;;;;;;9.53;3.23;;;;;;;;;;5012477;28;20216;-58
2021/12/10 09:26:36;;;;;;;11.87;3.00;;;;;;;;;;5011492;28;20209;-58
2021/12/10 09:29:03;;;;;;;14.00;3.50;;;;;;;;;;5003205;28;20540;-58
2021/12/10 09:31:28;;;;;;;11.37;3.13;;;;;;;;;;5011397;28;20212;-58
2021/12/10 09:33:54;;;;;;;12.80;3.47;;;;;;;;;;5014848;28;20208;-59
2021/12/10 09:36:19;;;;;;;8.57;2.80;;;;;;;;;;5011845;28;20299;-58
2021/12/10 09:38:44;;;;;;;15.40;3.60;;;;;;;;;;5014175;28;20219;-59
2021/12/10 09:41:10;;;;;;;10.30;3.47;;;;;;;;;;5011861;28;20213;-58
2021/12/10 09:43:35;;;;;;;6.90;2.67;;;;;;;;;;5012697;28;20227;-59
2021/12/10 09:46:01;;;;;;;7.67;3.30;;;;;;;;;;5013510;28;20209;-60
2021/12/10 09:48:26;;;;;;;10.37;3.30;;;;;;;;;;5014589;28;20540;-59
2021/12/10 09:50:54;;;;;;;12.57;4.00;;;;;;;;;;5012213;28;20220;-59
2021/12/10 09:53:19;;;;;;;10.77;3.10;;;;;;;;;;5011934;28;20217;-59
2021/12/10 09:55:45;;;;;;;15.70;6.20;;;;;;;;;;5014243;28;20212;-59
2021/12/10 09:58:10;;;;;;;15.47;5.27;;;;;;;;;;5011636;28;20212;-59
2021/12/10 10:00:37;;;;;;;9.80;3.63;;;;;;;;;;5012937;28;20295;-59
2021/12/10 10:03:03;;;;;;;9.57;3.37;;;;;;;;;;5011153;28;20227;-60
2021/12/10 10:05:28;;;;;;;11.57;3.43;;;;;;;;;;5013289;28;20208;-59
2021/12/10 10:07:55;;;;;;;12.83;3.83;;;;;;;;;;5014360;28;20212;-59
2021/12/10 10:10:24;;;;;;;11.13;5.43;;;;;;;;;;5013688;28;20579;-59
2021/12/10 10:12:50;;;;;;;10.63;3.70;;;;;;;;;;5027166;28;20265;-59
2021/12/10 10:15:16;;;;;;;14.13;4.70;;;;;;;;;;5014833;28;20212;-59
2021/12/10 10:17:42;;;;;;;13.30;5.50;;;;;;;;;;5013897;28;20243;-59
2021/12/10 10:20:08;;;;;;;11.57;3.83;;;;;;;;;;5011724;28;20240;-59
2021/12/10 10:22:33;;;;;;;12.63;4.37;;;;;;;;;;5024449;28;20223;-59
2021/12/10 10:24:58;;;;;;;13.23;4.17;;;;;;;;;;5033817;28;20211;-59
2021/12/10 10:27:27;;;;;;;11.70;4.87;;;;;;;;;;5025109;28;20680;-59
2021/12/10 10:29:54;;;;;;;9.53;3.53;;;;;;;;;;5013203;28;20303;-65
2021/12/10 10:32:21;;;;;;;12.68;4.18;;;;;;;;;;5023069;28;20488;-62
2021/12/10 10:34:49;;;;;;;14.00;2.73;;;;;;;;;;5032822;28;20207;-61
2021/12/10 10:37:15;;;;;;;13.87;3.97;;;;;;;;;;5032884;28;20211;-61
2021/12/10 10:39:42;;;;;;;8.07;3.53;;;;;;;;;;5032324;28;20555;-61
2021/12/10 10:42:11;;;;;;;10.23;3.30;;;;;;;;;;5012933;28;20240;-61
2021/12/10 10:44:36;;;;;;;8.90;3.10;;;;;;;;;;5013324;28;20555;-61
2021/12/10 10:47:02;;;;;;;8.20;2.80;;;;;;;;;;5012051;28;20231;-61
2021/12/10 10:49:34;;;;;;;9.93;3.00;;;;;;;;;;5012794;28;20208;-61
2021/12/10 10:52:10;;;;;;;13.03;3.93;;;;;;;;;;5013478;28;20278;-61
2021/12/10 10:54:36;;;;;;;12.10;3.00;;;;;;;;;;5011359;28;20212;-61
2021/12/10 10:57:01;;;;;;;12.20;4.00;;;;;;;;;;5012383;28;20216;-61
2021/12/10 10:59:27;;;;;;;13.87;3.60;;;;;;;;;;5011892;28;20683;-61
2021/12/10 11:01:59;;;;;;;9.53;2.97;;;;;;;;;;5012453;28;20235;-61
2021/12/10 11:04:27;;;;;;;11.43;2.83;;;;;;;;;;5011395;28;20339;-61
2021/12/10 11:06:54;;;;;;;11.73;2.90;;;;;;;;;;5013278;28;20267;-62
2021/12/10 11:09:21;;;;;;;9.70;3.30;;;;;;;;;;5011226;28;20438;-59
2021/12/10 11:11:49;;;;;;;12.50;2.77;;;;;;;;;;5012777;28;20299;-59
2021/12/10 11:14:16;;;;;;;8.80;2.37;;;;;;;;;;5012612;28;20211;-59
2021/12/10 11:16:42;;;;;;;10.63;3.10;;;;;;;;;;5012036;28;20231;-58
2021/12/10 11:19:08;;;;;;;9.90;2.77;;;;;;;;;;5002651;28;20263;-59
2021/12/10 11:21:35;;;;;;;10.60;2.87;;;;;;;;;;5026314;28;20218;-59
2021/12/10 11:24:07;;;;;;;13.30;3.00;;;;;;;;;;5012442;28;20229;-59
2021/12/10 11:26:43;;;;;;;9.07;2.80;;;;;;;;;;5012354;28;20549;-59
2021/12/10 11:29:21;;;;;;;12.13;3.00;;;;;;;;;;5010389;28;20212;-58
2021/12/10 11:31:55;;;;;;;10.37;2.63;;;;;;;;;;5008123;28;20294;-59
2021/12/10 11:34:37;;;;;;;12.30;3.00;;;;;;;;;;5012339;28;20564;-59
2021/12/10 11:37:02;;;;;;;8.50;2.37;;;;;;;;;;5010415;28;20220;-59
2021/12/10 11:39:42;;;;;;;10.47;2.33;;;;;;;;;;5012709;28;20266;-59
2021/12/10 11:42:26;;;;;;;8.87;2.77;;;;;;;;;;5011678;28;20243;-60
2021/12/10 11:45:15;;;;;;;10.03;2.73;;;;;;;;;;5012137;28;20216;-60
2021/12/10 11:47:45;;;;;;;9.47;2.70;;;;;;;;;;5011154;28;20755;-60
2021/12/10 11:50:17;;;;;;;8.93;3.23;;;;;;;;;;5012314;28;20205;-59
2021/12/10 11:52:42;;;;;;;8.10;2.67;;;;;;;;;;5010821;28;20270;-60
2021/12/10 11:55:09;;;;;;;9.30;2.90;;;;;;;;;;5012024;28;20435;-59
2021/12/10 11:57:35;;;;;;;11.90;3.30;;;;;;;;;;5004182;28;20700;-58
2021/12/10 12:00:05;;;;;;;12.10;2.90;;;;;;;;;;5013208;28;20295;-61
2021/12/10 12:02:32;;;;;;;12.03;2.97;;;;;;;;;;5016492;28;20226;-60
2021/12/10 12:04:58;;;;;;;9.82;3.28;;;;;;;;;;5015120;28;20538;-60
2021/12/10 12:07:25;;;;;;;8.83;3.43;;;;;;;;;;5030687;28;20647;-60
2021/12/10 12:09:52;;;;;;;10.20;3.10;;;;;;;;;;5033226;28;20243;-60
2021/12/10 12:12:18;;;;;;;7.80;2.73;;;;;;;;;;5032896;28;20207;-60
2021/12/10 12:14:51;;;;;;;9.77;3.20;;;;;;;;;;5022128;28;20217;-60
2021/12/10 12:17:30;;;;;;;9.83;2.87;;;;;;;;;;5015344;28;20291;-60
2021/12/10 12:19:55;;;;;;;7.60;2.97;;;;;;;;;;5014357;28;20223;-60
2021/12/10 12:25:20;;;;;;;12.03;3.57;;;;;;;;;;5015328;28;20227;-60
2021/12/10 12:27:56;;;;;;;6.27;2.73;;;;;;;;;;5013658;28;20262;-60
2021/12/10 12:30:21;;;;;;;12.47;3.27;;;;;;;;;;5016215;28;20211;-60
2021/12/10 12:32:48;;;;;;;7.83;2.80;;;;;;;;;;5002465;28;20220;-60
2021/12/10 12:35:15;;;;;;;11.00;3.23;;;;;;;;;;5001539;28;20271;-60
2021/12/10 12:37:40;;;;;;;12.83;3.10;;;;;;;;;;5014756;28;20216;-60
2021/12/10 12:40:06;;;;;;;8.40;2.90;;;;;;;;;;5013486;28;20271;-60
2021/12/10 12:42:33;;;;;;;10.10;3.30;;;;;;;;;;5013955;28;20315;-60
2021/12/10 12:45:00;;;;;;;12.30;3.43;;;;;;;;;;5011542;28;20629;-60
2021/12/10 12:47:26;;;;;;;10.10;3.40;;;;;;;;;;5014523;28;21112;-60
2021/12/10 12:49:56;;;;;;;11.07;3.30;;;;;;;;;;4998458;28;20572;-60
2021/12/10 12:52:24;;;;;;;12.20;3.03;;;;;;;;;;5015618;28;20212;-60
2021/12/10 12:55:02;;;;;;;9.50;3.10;;;;;;;;;;5011087;28;20208;-60
2021/12/10 12:57:41;;;;;;;9.70;3.10;;;;;;;;;;5014971;28;20220;-59
2021/12/10 13:00:08;;;;;;;11.07;3.13;;;;;;;;;;5014098;28;20287;-60
2021/12/10 13:02:33;;;;;;;8.57;2.90;;;;;;;;;;5014538;28;20224;-59
2021/12/10 13:04:58;;;;;;;8.90;2.70;;;;;;;;;;5013122;28;20707;-59
2021/12/10 13:07:24;;;;;;;7.70;3.10;;;;;;;;;;5015234;28;20676;-59
2021/12/10 13:09:54;;;;;;;12.00;2.97;;;;;;;;;;5014260;28;20734;-60
2021/12/10 13:12:30;;;;;;;12.90;6.40;;;;;;;;;;5014484;28;20557;-60
2021/12/10 13:14:58;;;;;;;16.30;5.43;;;;;;;;;;5011536;28;20207;-60
2021/12/10 13:17:26;;;;;;;10.30;3.40;;;;;;;;;;5014550;28;20204;-59
2021/12/10 13:19:53;;;;;;;14.05;6.25;;;;;;;;;;5014207;28;20423;-60
2021/12/10 13:22:20;;;;;;;9.77;3.53;;;;;;;;;;5014168;28;20228;-60
2021/12/10 13:24:46;;;;;;;9.70;3.70;;;;;;;;;;5022151;28;20693;-59
2021/12/10 13:27:11;;;;;;;10.90;3.67;;;;;;;;;;5034058;28;20219;-60
2021/12/10 13:29:37;;;;;;;10.77;4.23;;;;;;;;;;5031025;28;20215;-60
2021/12/10 13:32:04;;;;;;;13.07;3.97;;;;;;;;;;5034087;28;20208;-60
2021/12/10 13:34:29;;;;;;;9.77;3.83;;;;;;;;;;5031229;28;20241;-60
2021/12/10 13:36:54;;;;;;;10.20;3.70;;;;;;;;;;5014109;28;20568;-60
2021/12/10 13:39:20;;;;;;;11.80;4.13;;;;;;;;;;5014446;28;22424;-60
2021/12/10 13:41:46;;;;;;;11.80;4.13;;;;;;;;;;5014277;28;20232;-60
2021/12/10 13:44:21;;;;;;;8.03;3.80;;;;;;;;;;5013526;28;20586;-60
2021/12/10 13:46:49;;;;;;;9.23;3.65;;;;;;;;;;5011567;28;20206;-60
2021/12/10 13:49:14;;;;;;;9.13;3.00;;;;;;;;;;5014013;28;20228;-60
2021/12/10 13:51:43;;;;;;;11.03;3.87;;;;;;;;;;5014184;28;20251;-60
2021/12/10 13:54:09;;;;;;;11.70;3.70;;;;;;;;;;5014177;28;20684;-60
2021/12/10 13:56:35;;;;;;;12.87;5.90;;;;;;;;;;5011563;28;20688;-59
2021/12/10 13:59:02;;;;;;;11.83;4.83;;;;;;;;;;5013306;28;20259;-61
2021/12/10 14:01:32;;;;;;;8.60;3.47;;;;;;;;;;5009766;28;20212;-61
2021/12/10 14:04:02;;;;;;;12.43;3.60;;;;;;;;;;5013997;28;20217;-60
2021/12/10 14:06:35;;;;;;;9.13;3.57;;;;;;;;;;4995118;28;20201;-61
2021/12/10 14:09:09;;;;;;;10.20;3.37;;;;;;;;;;4996039;28;20637;-61
2021/12/10 14:11:52;;;;;;;9.57;3.50;;;;;;;;;;5003076;28;20212;-61
2021/12/10 14:14:17;;;;;;;7.80;3.70;;;;;;;;;;5005812;28;20672;-60
2021/12/10 14:16:46;;;;;;;10.83;4.00;;;;;;;;;;5006413;28;20223;-60
2021/12/10 14:19:26;;;;;;;8.20;3.47;;;;;;;;;;5003701;28;20217;-60
2021/12/10 14:21:51;;;;;;;12.57;8.43;;;;;;;;;;5003626;28;20216;-60
2021/12/10 14:24:17;;;;;;;14.57;4.90;;;;;;;;;;5005121;28;20216;-60
2021/12/10 14:26:42;;;;;;;11.27;4.63;;;;;;;;;;4997912;28;21332;-60
2021/12/10 14:29:11;;;;;;;9.67;3.90;;;;;;;;;;4997482;28;20205;-60
2021/12/10 14:31:37;;;;;;;13.40;4.30;;;;;;;;;;4996631;28;20219;-60
2021/12/10 14:34:10;;;;;;;10.83;3.70;;;;;;;;;;5003375;28;20732;-61
2021/12/10 14:36:35;;;;;;;12.40;3.80;;;;;;;;;;5004308;28;20213;-61
2021/12/10 14:39:00;;;;;;;11.80;4.00;;;;;;;;;;5005421;28;20701;-62
2021/12/10 14:41:26;;;;;;;12.63;4.30;;;;;;;;;;5019710;28;20574;-61
2021/12/10 14:44:00;;;;;;;8.90;3.87;;;;;;;;;;5005955;28;20224;-60